Time;durP1;ratioP1;P1;durP2;ratioP2;P2;SDS_P1;SDS_P2;PMS_P1;PMS_P2;Temp;Humidity;BMP_temperature;BMP_pressure;BME280_temperature;BME280_humidity;BME280_pressure;Samples;Min_cycle;Max_cycle;Signal;HPM_P1;HPM_P2
2022/12/05 00:02:12;;;;;;;42.70;26.20;;;2.00;99.90;;;;;;5033212;28;20202;-65
2022/12/05 00:04:38;;;;;;;35.63;24.00;;;1.90;99.90;;;;;;5033423;28;20588;-65
2022/12/05 00:07:03;;;;;;;43.60;28.07;;;2.00;99.90;;;;;;5033428;28;20182;-65
2022/12/05 00:09:29;;;;;;;43.10;26.63;;;1.90;99.90;;;;;;5034320;28;20683;-65
2022/12/05 00:11:55;;;;;;;45.53;26.80;;;2.00;99.90;;;;;;5035451;28;20248;-65
2022/12/05 00:14:21;;;;;;;40.87;26.03;;;2.00;99.90;;;;;;5038275;28;20229;-65
2022/12/05 00:16:47;;;;;;;41.47;25.90;;;2.00;99.90;;;;;;5037831;28;20256;-65
2022/12/05 00:19:14;;;;;;;40.23;26.27;;;2.00;99.90;;;;;;5037747;28;20179;-65
2022/12/05 00:21:40;;;;;;;40.27;25.50;;;2.00;99.90;;;;;;5019237;28;20241;-65
2022/12/05 00:24:08;;;;;;;42.00;28.17;;;2.00;99.90;;;;;;5037557;28;20191;-65
2022/12/05 00:26:34;;;;;;;42.40;27.33;;;2.00;99.90;;;;;;5037456;28;20198;-65
2022/12/05 00:29:00;;;;;;;36.17;24.87;;;2.00;99.90;;;;;;5037597;28;20517;-65
2022/12/05 00:31:27;;;;;;;41.70;26.63;;;2.00;99.90;;;;;;5037012;28;20270;-65
2022/12/05 00:33:53;;;;;;;42.20;26.60;;;2.00;99.90;;;;;;5019236;28;20605;-65
2022/12/05 00:36:22;;;;;;;44.70;25.37;;;2.00;99.90;;;;;;5036880;28;20203;-66
2022/12/05 00:38:48;;;;;;;38.20;26.00;;;2.00;99.90;;;;;;5037062;28;20636;-65
2022/12/05 00:41:18;;;;;;;45.13;27.43;;;2.00;99.90;;;;;;5036786;28;20202;-65
2022/12/05 00:43:44;;;;;;;46.13;25.80;;;2.00;99.90;;;;;;5018909;28;20210;-65
2022/12/05 00:46:13;;;;;;;40.13;26.20;;;2.00;99.90;;;;;;5036731;28;20595;-65
2022/12/05 00:48:39;;;;;;;39.70;25.30;;;2.00;99.90;;;;;;5018814;28;20190;-65
2022/12/05 00:51:22;;;;;;;43.27;26.70;;;2.00;99.90;;;;;;5036459;28;20606;-65
2022/12/05 00:53:49;;;;;;;46.43;27.40;;;2.00;99.90;;;;;;5036776;28;20656;-66
2022/12/05 00:56:21;;;;;;;43.70;24.87;;;2.00;99.90;;;;;;5036643;28;20258;-65
2022/12/05 00:58:48;;;;;;;44.47;26.47;;;2.00;99.90;;;;;;5036525;28;20176;-65
2022/12/05 01:01:15;;;;;;;38.73;25.00;;;2.00;99.90;;;;;;5036441;28;20191;-66
2022/12/05 01:03:42;;;;;;;40.40;25.10;;;2.00;99.90;;;;;;5018729;28;20265;-65
2022/12/05 01:06:08;;;;;;;38.47;25.30;;;2.00;99.90;;;;;;5036679;28;20624;-66
2022/12/05 01:08:34;;;;;;;41.70;26.03;;;2.00;99.90;;;;;;5036591;28;20187;-66
2022/12/05 01:11:00;;;;;;;46.83;27.43;;;2.00;99.90;;;;;;5036395;28;20231;-65
2022/12/05 01:13:27;;;;;;;41.13;25.97;;;2.00;99.90;;;;;;5036285;28;20183;-66
2022/12/05 01:15:53;;;;;;;39.67;26.53;;;2.00;99.90;;;;;;5036210;28;20168;-66
2022/12/05 01:18:20;;;;;;;45.00;27.03;;;2.00;99.90;;;;;;5036231;28;20179;-65
2022/12/05 01:20:46;;;;;;;45.87;27.23;;;2.00;99.90;;;;;;5036345;28;20195;-65
2022/12/05 01:23:12;;;;;;;41.17;27.20;;;2.00;99.90;;;;;;5035932;28;20270;-65
2022/12/05 01:25:42;;;;;;;46.90;27.40;;;2.00;99.90;;;;;;5035533;28;20179;-66
2022/12/05 01:28:08;;;;;;;41.63;25.70;;;2.00;99.90;;;;;;5035730;28;20199;-66
2022/12/05 01:30:42;;;;;;;42.67;26.10;;;2.00;99.90;;;;;;5035806;28;20190;-66
2022/12/05 01:33:08;;;;;;;43.03;25.00;;;2.00;99.90;;;;;;5018015;28;20171;-65
2022/12/05 01:35:35;;;;;;;41.43;25.63;;;2.00;99.90;;;;;;5035735;28;20257;-66
2022/12/05 01:38:02;;;;;;;36.33;26.10;;;2.00;99.90;;;;;;5035681;28;20168;-66
2022/12/05 01:40:27;;;;;;;37.63;24.40;;;2.00;99.90;;;;;;5017913;28;20666;-66
2022/12/05 01:42:53;;;;;;;43.33;25.93;;;2.00;99.90;;;;;;5035600;28;20175;-65
2022/12/05 01:45:40;;;;;;;41.80;24.30;;;2.00;99.90;;;;;;5035577;28;20190;-65
2022/12/05 01:48:18;;;;;;;46.43;25.53;;;2.00;99.90;;;;;;5036116;28;20167;-66
2022/12/05 01:50:45;;;;;;;38.40;25.37;;;2.00;99.90;;;;;;5035671;28;20207;-65
2022/12/05 01:53:11;;;;;;;42.70;25.57;;;2.10;99.90;;;;;;5035308;28;20229;-65
2022/12/05 01:55:37;;;;;;;42.83;25.73;;;2.00;99.90;;;;;;5035582;28;20596;-65
2022/12/05 01:58:05;;;;;;;36.67;24.70;;;2.10;99.90;;;;;;5017702;28;20175;-66
2022/12/05 02:00:31;;;;;;;41.73;25.23;;;2.00;99.90;;;;;;5017507;28;20688;-66
2022/12/05 02:03:01;;;;;;;34.20;23.83;;;2.10;99.90;;;;;;5017408;28;20584;-66
2022/12/05 02:05:35;;;;;;;37.33;24.50;;;2.00;99.90;;;;;;5035296;28;20173;-65
2022/12/05 02:08:05;;;;;;;43.27;25.50;;;2.00;99.90;;;;;;5035061;28;20159;-66
2022/12/05 02:10:36;;;;;;;38.47;23.43;;;2.10;99.90;;;;;;5035215;28;20199;-66
2022/12/05 02:13:20;;;;;;;40.10;25.00;;;2.10;99.90;;;;;;5017524;28;20179;-65
2022/12/05 02:16:02;;;;;;;39.37;24.90;;;2.10;99.90;;;;;;5035103;28;20179;-66
2022/12/05 02:18:57;;;;;;;39.47;25.70;;;2.00;99.90;;;;;;5035339;28;20503;-65
2022/12/05 02:21:23;;;;;;;44.83;24.73;;;2.10;99.90;;;;;;5034805;28;20203;-66
2022/12/05 02:23:48;;;;;;;38.47;24.77;;;2.10;99.90;;;;;;5034926;28;20302;-65
2022/12/05 02:26:46;;;;;;;37.57;23.90;;;2.10;99.90;;;;;;5034805;28;20176;-66
2022/12/05 02:29:31;;;;;;;44.27;26.07;;;2.10;99.90;;;;;;5034843;28;20170;-65
2022/12/05 02:32:23;;;;;;;42.80;25.90;;;2.10;99.90;;;;;;5034763;28;20195;-65
2022/12/05 02:35:12;;;;;;;42.70;25.77;;;2.10;99.90;;;;;;5034518;28;20555;-65
2022/12/05 02:38:10;;;;;;;42.93;25.23;;;2.10;99.90;;;;;;5016792;28;20179;-65
2022/12/05 02:40:43;;;;;;;40.77;24.13;;;2.10;99.90;;;;;;5034554;28;20218;-65
2022/12/05 02:43:58;;;;;;;38.93;24.10;;;2.10;99.90;;;;;;5034587;28;20569;-65
2022/12/05 02:46:27;;;;;;;35.70;23.60;;;2.10;99.90;;;;;;4973750;28;20165;-66
2022/12/05 02:48:59;;;;;;;38.20;24.10;;;2.10;99.90;;;;;;5029231;28;20195;-65
2022/12/05 02:51:32;;;;;;;38.50;25.60;;;2.10;99.90;;;;;;5034422;28;20191;-66
2022/12/05 02:54:02;;;;;;;38.63;24.20;;;2.10;99.90;;;;;;5034355;28;20191;-65
2022/12/05 02:56:30;;;;;;;42.00;25.30;;;2.10;99.90;;;;;;5034443;28;20522;-66
2022/12/05 02:58:56;;;;;;;40.57;24.13;;;2.10;99.90;;;;;;5034255;28;20175;-65
2022/12/05 03:01:26;;;;;;;40.20;24.10;;;2.10;99.90;;;;;;5016409;28;20195;-65
2022/12/05 03:03:52;;;;;;;40.43;25.20;;;2.10;99.90;;;;;;5016548;28;20186;-66
2022/12/05 03:06:39;;;;;;;39.53;25.37;;;2.10;99.90;;;;;;5034003;28;20172;-66
2022/12/05 03:09:43;;;;;;;41.30;24.77;;;2.10;99.90;;;;;;5034097;28;20586;-66
2022/12/05 03:12:14;;;;;;;40.80;25.80;;;2.10;99.90;;;;;;4973874;28;20706;-65
2022/12/05 03:14:57;;;;;;;42.20;25.30;;;2.10;99.90;;;;;;5023626;28;20301;-65
2022/12/05 03:17:31;;;;;;;39.40;23.50;;;2.10;99.90;;;;;;5016271;28;20217;-65
2022/12/05 03:20:10;;;;;;;44.13;27.00;;;2.10;99.90;;;;;;5034192;28;20195;-65
2022/12/05 03:22:47;;;;;;;41.00;25.50;;;2.10;99.90;;;;;;5016123;28;20207;-65
2022/12/05 03:25:13;;;;;;;36.67;23.40;;;2.10;99.90;;;;;;5016120;28;20270;-65
2022/12/05 03:27:56;;;;;;;39.57;24.17;;;2.00;99.90;;;;;;5033887;28;20183;-66
2022/12/05 03:30:22;;;;;;;39.33;26.40;;;2.00;99.90;;;;;;5033902;28;20164;-65
2022/12/05 03:33:06;;;;;;;40.67;24.03;;;2.00;99.90;;;;;;5033938;28;20177;-66
2022/12/05 03:35:42;;;;;;;38.97;24.53;;;2.00;99.90;;;;;;5034402;28;20190;-66
2022/12/05 03:38:21;;;;;;;41.90;25.97;;;2.10;99.90;;;;;;5033342;28;20155;-66
2022/12/05 03:40:54;;;;;;;40.57;26.20;;;2.00;99.90;;;;;;5033735;28;20221;-65
2022/12/05 03:43:29;;;;;;;41.17;25.40;;;2.00;99.90;;;;;;5015822;28;20202;-65
2022/12/05 03:46:26;;;;;;;41.77;24.93;;;2.00;99.90;;;;;;5033426;28;20250;-65
2022/12/05 03:49:14;;;;;;;37.80;23.57;;;2.00;99.90;;;;;;5032788;28;20194;-65
2022/12/05 03:51:52;;;;;;;41.30;24.83;;;2.00;99.90;;;;;;5033504;28;20680;-65
2022/12/05 03:54:31;;;;;;;46.70;27.27;;;2.00;99.90;;;;;;5033898;28;20190;-65
2022/12/05 03:57:20;;;;;;;39.30;24.43;;;1.90;99.90;;;;;;5033729;28;20198;-65
2022/12/05 03:59:56;;;;;;;38.30;24.23;;;1.90;99.90;;;;;;5033320;28;20170;-65
2022/12/05 04:02:44;;;;;;;44.47;25.90;;;1.90;99.90;;;;;;5033212;28;20297;-65
2022/12/05 04:05:17;;;;;;;36.50;25.13;;;1.80;99.90;;;;;;5033329;28;20175;-65
2022/12/05 04:07:45;;;;;;;34.83;23.20;;;1.80;99.90;;;;;;5033291;28;20163;-65
2022/12/05 04:10:19;;;;;;;37.43;23.50;;;1.80;99.90;;;;;;5033475;28;20268;-65
2022/12/05 04:12:46;;;;;;;34.57;24.07;;;1.80;99.90;;;;;;5033564;28;20163;-65
2022/12/05 04:17:02;;;;;;;32.60;22.40;;;1.90;99.90;;;;;;5033229;28;20253;-65
2022/12/05 04:18:17;;;;;;;38.60;24.67;;;1.90;99.90;;;;;;5032997;28;20552;-65
2022/12/05 04:23:29;;;;;;;35.87;22.47;;;1.90;99.90;;;;;;5033057;28;20182;-65
2022/12/05 04:26:26;;;;;;;33.87;22.50;;;1.90;99.90;;;;;;5033126;28;20631;-65
2022/12/05 04:29:03;;;;;;;35.57;23.63;;;1.90;99.90;;;;;;5020297;28;20285;-65
2022/12/05 04:31:38;;;;;;;31.17;22.40;;;1.90;99.90;;;;;;5033183;28;20217;-65
2022/12/05 04:34:07;;;;;;;35.83;23.73;;;1.90;99.90;;;;;;5033192;28;20201;-65
2022/12/05 04:36:57;;;;;;;35.50;23.60;;;1.90;99.90;;;;;;5032858;28;20178;-65
2022/12/05 04:39:30;;;;;;;34.17;22.00;;;1.90;99.90;;;;;;5024631;28;20199;-65
2022/12/05 04:42:18;;;;;;;34.07;22.97;;;1.90;99.90;;;;;;5015249;28;20203;-65
2022/12/05 04:44:53;;;;;;;33.93;22.83;;;1.90;99.90;;;;;;5032810;28;20187;-65
2022/12/05 04:47:24;;;;;;;36.30;22.10;;;1.90;99.90;;;;;;5033154;28;20183;-66
2022/12/05 04:49:52;;;;;;;31.67;21.40;;;1.90;99.90;;;;;;5033124;28;20175;-65
2022/12/05 04:52:18;;;;;;;32.63;21.90;;;1.90;99.90;;;;;;5032590;28;20664;-66
2022/12/05 04:54:56;;;;;;;35.60;22.10;;;1.80;99.90;;;;;;5033013;28;20214;-65
2022/12/05 04:57:34;;;;;;;32.43;20.70;;;1.90;99.90;;;;;;5015091;28;20199;-65
2022/12/05 05:00:00;;;;;;;33.83;21.20;;;1.90;99.90;;;;;;5017391;28;20167;-65
2022/12/05 05:02:41;;;;;;;37.20;22.43;;;1.90;99.90;;;;;;5036308;28;20198;-65
2022/12/05 05:05:11;;;;;;;30.07;21.70;;;1.80;99.90;;;;;;5036733;28;20171;-65
2022/12/05 05:07:48;;;;;;;29.53;20.13;;;1.90;99.90;;;;;;5036368;28;20179;-65
2022/12/05 05:10:19;;;;;;;30.90;21.07;;;1.90;99.90;;;;;;5036518;28;20575;-65
2022/12/05 05:12:45;;;;;;;28.33;20.63;;;1.90;99.90;;;;;;5036306;28;20167;-65
2022/12/05 05:15:10;;;;;;;34.97;22.03;;;1.80;99.90;;;;;;5036229;28;20570;-65
2022/12/05 05:17:36;;;;;;;29.50;21.07;;;1.80;99.90;;;;;;5036698;28;20213;-65
2022/12/05 05:20:22;;;;;;;30.90;21.13;;;1.80;99.90;;;;;;5036198;28;20171;-66
2022/12/05 05:22:52;;;;;;;30.23;20.50;;;1.80;99.90;;;;;;5036151;28;20239;-66
2022/12/05 05:25:19;;;;;;;30.67;21.83;;;1.80;99.90;;;;;;5036323;28;20563;-66
2022/12/05 05:27:50;;;;;;;37.87;22.27;;;1.80;99.90;;;;;;5035801;28;20198;-66
2022/12/05 05:30:17;;;;;;;29.33;21.10;;;1.80;99.90;;;;;;5035857;28;20224;-66
2022/12/05 05:32:43;;;;;;;33.53;21.10;;;1.80;99.90;;;;;;5036265;28;20542;-66
2022/12/05 05:35:09;;;;;;;33.10;21.97;;;1.70;99.90;;;;;;5035745;28;20199;-66
2022/12/05 05:37:34;;;;;;;31.67;20.80;;;1.70;99.90;;;;;;5035614;28;20171;-66
2022/12/05 05:40:00;;;;;;;33.20;19.80;;;1.60;99.90;;;;;;5017981;28;20190;-66
2022/12/05 05:42:26;;;;;;;32.03;21.27;;;1.60;99.90;;;;;;5035514;28;20199;-66
2022/12/05 05:44:51;;;;;;;30.07;19.20;;;1.60;99.90;;;;;;5035711;28;20680;-66
2022/12/05 05:47:17;;;;;;;26.30;19.43;;;1.60;99.90;;;;;;5035660;28;20203;-66
2022/12/05 05:49:43;;;;;;;29.50;20.33;;;1.60;99.90;;;;;;5035775;28;20636;-66
2022/12/05 05:52:09;;;;;;;29.20;20.37;;;1.60;99.90;;;;;;5035974;28;20249;-66
2022/12/05 05:54:34;;;;;;;33.53;22.13;;;1.60;99.90;;;;;;5035865;28;20210;-66
2022/12/05 05:57:00;;;;;;;32.53;20.63;;;1.60;99.90;;;;;;5036471;28;20222;-65
2022/12/05 05:59:26;;;;;;;29.37;19.27;;;1.60;99.90;;;;;;5036563;28;20210;-66
2022/12/05 06:01:51;;;;;;;29.00;20.10;;;1.50;99.90;;;;;;5036278;28;20191;-66
2022/12/05 06:04:17;;;;;;;29.83;19.63;;;1.60;99.90;;;;;;5036307;28;20258;-66
2022/12/05 06:06:43;;;;;;;32.37;19.73;;;1.60;99.90;;;;;;5035116;28;20586;-66
2022/12/05 06:09:08;;;;;;;26.67;18.97;;;1.60;99.90;;;;;;5017467;28;20644;-66
2022/12/05 06:11:34;;;;;;;27.67;19.40;;;1.60;99.90;;;;;;5034747;28;20199;-66
2022/12/05 06:14:00;;;;;;;33.63;20.63;;;1.60;99.90;;;;;;5035635;28;20721;-66
2022/12/05 06:16:27;;;;;;;27.57;19.43;;;1.60;99.90;;;;;;5035083;28;20179;-66
2022/12/05 06:18:53;;;;;;;27.17;19.53;;;1.60;99.90;;;;;;5034941;28;20256;-66
2022/12/05 06:21:20;;;;;;;30.00;19.50;;;1.60;99.90;;;;;;5034862;28;20195;-65
2022/12/05 06:23:45;;;;;;;34.63;20.87;;;1.60;99.90;;;;;;5034553;28;20765;-66
2022/12/05 06:26:14;;;;;;;27.30;19.83;;;1.60;99.90;;;;;;5017013;28;20213;-67
2022/12/05 06:28:41;;;;;;;33.30;19.67;;;1.60;99.90;;;;;;5034803;28;20535;-66
2022/12/05 06:31:12;;;;;;;30.57;19.17;;;1.60;99.90;;;;;;5034805;28;20195;-66
2022/12/05 06:33:38;;;;;;;28.47;19.73;;;1.60;99.90;;;;;;5034936;28;20183;-66
2022/12/05 06:36:09;;;;;;;29.23;18.93;;;1.60;99.90;;;;;;5034653;28;20659;-65
2022/12/05 06:38:35;;;;;;;29.33;20.03;;;1.60;99.90;;;;;;5034431;28;20179;-66
2022/12/05 06:41:05;;;;;;;29.03;19.97;;;1.50;99.90;;;;;;5034567;28;20221;-65
2022/12/05 06:43:31;;;;;;;27.97;19.40;;;1.50;99.90;;;;;;5034535;28;20175;-65
2022/12/05 06:45:57;;;;;;;26.63;18.33;;;1.50;99.90;;;;;;5034580;28;20169;-65
2022/12/05 06:48:23;;;;;;;28.93;19.67;;;1.50;99.90;;;;;;5034409;28;20629;-65
2022/12/05 06:50:50;;;;;;;28.17;18.10;;;1.40;99.90;;;;;;5034519;28;20286;-65
2022/12/05 06:53:16;;;;;;;29.53;19.03;;;1.40;99.90;;;;;;5034322;28;20164;-65
2022/12/05 06:55:41;;;;;;;26.40;18.40;;;1.40;99.90;;;;;;5034722;28;20199;-65
2022/12/05 06:58:07;;;;;;;24.33;18.27;;;1.30;99.90;;;;;;5034577;28;20163;-65
2022/12/05 07:03:17;;;;;;;22.43;17.80;;;1.30;99.90;;;;;;5034486;28;20186;-65
2022/12/05 07:05:43;;;;;;;26.83;17.87;;;1.30;99.90;;;;;;5034113;28;20183;-65
2022/12/05 07:08:09;;;;;;;27.37;18.93;;;1.30;99.90;;;;;;5034010;28;20163;-65
2022/12/05 07:10:34;;;;;;;22.03;17.23;;;1.30;99.90;;;;;;5033978;28;20222;-65
2022/12/05 07:13:00;;;;;;;26.37;17.30;;;1.30;99.90;;;;;;5034681;28;20183;-65
2022/12/05 07:15:26;;;;;;;20.90;16.37;;;1.30;99.90;;;;;;5033870;28;20229;-67
2022/12/05 07:17:51;;;;;;;21.67;16.83;;;1.30;99.90;;;;;;5034569;28;20174;-67
2022/12/05 07:20:17;;;;;;;24.73;17.50;;;1.30;99.90;;;;;;5034113;28;20526;-67
2022/12/05 07:22:44;;;;;;;23.40;15.97;;;1.30;99.90;;;;;;5033015;28;20179;-67
2022/12/05 07:25:10;;;;;;;23.13;16.70;;;1.30;99.90;;;;;;5033864;28;20171;-67
2022/12/05 07:27:36;;;;;;;18.83;15.50;;;1.30;99.90;;;;;;5033711;28;20191;-67
2022/12/05 07:30:02;;;;;;;24.90;16.07;;;1.30;99.90;;;;;;5033981;28;20550;-67
2022/12/05 07:32:32;;;;;;;21.23;16.07;;;1.30;99.90;;;;;;5033518;28;20203;-67
2022/12/05 07:34:58;;;;;;;20.77;16.07;;;1.30;99.90;;;;;;5033529;28;20245;-67
2022/12/05 07:37:23;;;;;;;17.90;15.03;;;1.30;99.90;;;;;;5033487;28;20187;-66
2022/12/05 07:39:53;;;;;;;19.50;15.93;;;1.20;99.90;;;;;;5034064;28;20180;-66
2022/12/05 07:42:19;;;;;;;20.13;16.00;;;1.20;99.90;;;;;;5033773;28;20206;-66
2022/12/05 07:44:45;;;;;;;19.30;15.37;;;1.20;99.90;;;;;;5033843;28;20503;-66
2022/12/05 07:47:10;;;;;;;21.63;16.17;;;1.20;99.90;;;;;;5033597;28;20190;-66
2022/12/05 07:49:36;;;;;;;18.27;16.13;;;1.20;99.90;;;;;;5033400;28;20643;-66
2022/12/05 07:52:02;;;;;;;20.00;15.10;;;1.20;99.90;;;;;;5033181;28;20230;-66
2022/12/05 07:54:27;;;;;;;19.40;15.63;;;1.20;99.90;;;;;;5033285;28;20557;-66
2022/12/05 07:56:53;;;;;;;19.97;15.90;;;1.20;99.90;;;;;;5033321;28;20211;-66
2022/12/05 07:59:19;;;;;;;20.23;16.43;;;1.20;99.90;;;;;;5015708;28;20179;-67
2022/12/05 08:01:45;;;;;;;19.23;16.33;;;1.20;99.90;;;;;;5033262;28;20187;-67
2022/12/05 08:04:11;;;;;;;18.20;16.30;;;1.20;99.90;;;;;;5016359;28;20187;-67
2022/12/05 08:06:37;;;;;;;17.03;14.43;;;1.20;99.90;;;;;;5015502;28;20190;-67
2022/12/05 08:09:03;;;;;;;17.37;14.97;;;1.20;99.90;;;;;;5033106;28;20186;-67
2022/12/05 08:11:34;;;;;;;16.40;14.70;;;1.20;99.90;;;;;;5033134;28;20202;-67
2022/12/05 08:13:59;;;;;;;17.13;14.53;;;1.20;99.90;;;;;;5015397;28;20207;-67
2022/12/05 08:16:27;;;;;;;15.47;13.97;;;1.20;99.90;;;;;;5015485;28;20187;-67
2022/12/05 08:19:03;;;;;;;16.23;14.53;;;1.20;99.90;;;;;;5033069;28;20266;-68
2022/12/05 08:21:29;;;;;;;16.83;15.03;;;1.20;99.90;;;;;;5033285;28;20197;-67
2022/12/05 08:23:56;;;;;;;16.00;14.37;;;1.20;99.90;;;;;;5032930;28;20183;-67
2022/12/05 08:26:25;;;;;;;15.87;13.83;;;1.20;99.90;;;;;;5015238;28;20187;-68
2022/12/05 08:28:53;;;;;;;16.60;14.90;;;1.20;99.90;;;;;;5033411;28;20624;-67
2022/12/05 08:31:22;;;;;;;16.73;14.30;;;1.20;99.90;;;;;;5015328;28;20211;-67
2022/12/05 08:33:49;;;;;;;15.03;13.37;;;1.20;99.90;;;;;;5035050;28;20182;-67
2022/12/05 08:36:15;;;;;;;16.60;14.87;;;1.20;99.90;;;;;;5037494;28;20178;-67
2022/12/05 08:38:42;;;;;;;17.07;15.33;;;1.20;99.90;;;;;;5036733;28;20179;-67
2022/12/05 08:41:11;;;;;;;18.57;14.87;;;1.20;99.90;;;;;;5036895;28;20199;-67
2022/12/05 08:43:36;;;;;;;18.87;16.03;;;1.20;99.90;;;;;;5019113;28;20222;-67
2022/12/05 08:46:03;;;;;;;19.97;17.40;;;1.10;99.90;;;;;;5036783;28;20673;-67
2022/12/05 08:48:32;;;;;;;18.43;16.13;;;1.10;99.90;;;;;;5037022;28;20198;-67
2022/12/05 08:51:03;;;;;;;20.03;16.73;;;1.10;99.90;;;;;;5036675;28;20195;-67
2022/12/05 08:53:29;;;;;;;22.43;16.27;;;1.10;99.90;;;;;;5036700;28;20306;-67
2022/12/05 08:55:55;;;;;;;20.10;16.30;;;1.00;99.90;;;;;;5036558;28;20731;-67
2022/12/05 08:58:20;;;;;;;16.67;14.97;;;1.00;99.90;;;;;;5018940;28;20210;-67
2022/12/05 09:00:46;;;;;;;24.33;17.70;;;1.00;99.90;;;;;;5036441;28;20198;-67
2022/12/05 09:03:12;;;;;;;23.53;18.60;;;1.00;99.90;;;;;;5037075;28;20171;-67
2022/12/05 09:05:38;;;;;;;21.47;16.33;;;1.00;99.90;;;;;;5036439;28;20207;-67
2022/12/05 09:08:04;;;;;;;19.77;16.90;;;1.00;99.90;;;;;;5036472;28;20183;-66
2022/12/05 09:10:30;;;;;;;18.10;16.17;;;0.90;99.90;;;;;;5036352;28;20683;-67
2022/12/05 09:12:55;;;;;;;19.57;16.50;;;0.90;99.90;;;;;;5036281;28;20193;-67
2022/12/05 09:15:21;;;;;;;19.00;16.53;;;0.90;99.90;;;;;;5036222;28;20199;-67
2022/12/05 09:17:47;;;;;;;21.73;16.73;;;0.80;99.90;;;;;;5036166;28;20560;-67
2022/12/05 09:20:13;;;;;;;20.10;16.57;;;0.80;99.90;;;;;;5036080;28;20174;-67
2022/12/05 09:22:40;;;;;;;18.33;15.60;;;0.80;99.90;;;;;;5035912;28;20183;-67
2022/12/05 09:25:06;;;;;;;18.87;16.27;;;0.70;99.90;;;;;;5036123;28;20175;-67
2022/12/05 09:27:32;;;;;;;17.53;15.60;;;0.70;99.90;;;;;;5035887;28;20275;-67
2022/12/05 09:29:58;;;;;;;19.73;16.67;;;0.70;99.90;;;;;;5018379;28;20603;-67
2022/12/05 09:32:24;;;;;;;20.90;17.27;;;0.80;99.90;;;;;;5035870;28;20782;-67
2022/12/05 09:34:50;;;;;;;19.77;16.33;;;0.80;99.90;;;;;;5018200;28;20294;-67
2022/12/05 09:37:17;;;;;;;19.93;16.80;;;0.90;99.90;;;;;;5035943;28;20220;-67
2022/12/05 09:39:45;;;;;;;20.23;16.60;;;0.90;99.90;;;;;;5035934;28;20175;-67
2022/12/05 09:42:37;;;;;;;18.33;15.13;;;0.90;99.90;;;;;;5035648;28;20187;-67
2022/12/05 09:45:18;;;;;;;18.33;15.50;;;1.00;99.90;;;;;;5035285;28;20694;-68
2022/12/05 09:47:55;;;;;;;17.10;15.10;;;1.00;99.90;;;;;;5035716;28;20175;-67
2022/12/05 09:50:44;;;;;;;16.97;15.17;;;1.10;99.90;;;;;;5035631;28;20183;-68
2022/12/05 09:53:21;;;;;;;16.20;14.23;;;1.10;99.90;;;;;;5035457;28;20163;-68
2022/12/05 09:56:15;;;;;;;16.93;15.07;;;1.00;99.90;;;;;;5017668;28;20210;-67
2022/12/05 09:58:47;;;;;;;15.33;13.73;;;1.10;99.90;;;;;;5036008;28;20155;-67
2022/12/05 10:01:31;;;;;;;18.60;14.50;;;1.10;99.90;;;;;;5017578;28;20201;-67
2022/12/05 10:04:21;;;;;;;15.60;14.00;;;1.00;99.90;;;;;;5035316;28;20643;-67
2022/12/05 10:07:26;;;;;;;16.10;14.33;;;1.10;99.90;;;;;;5035624;28;20170;-67
2022/12/05 10:10:16;;;;;;;17.80;14.93;;;1.00;99.90;;;;;;5036066;28;20199;-67
2022/12/05 10:13:20;;;;;;;15.60;13.90;;;1.00;99.90;;;;;;5017403;28;20210;-67
2022/12/05 10:16:06;;;;;;;17.13;15.13;;;1.00;99.90;;;;;;5035049;28;20202;-67
2022/12/05 10:18:40;;;;;;;17.70;15.80;;;1.00;99.90;;;;;;5035360;28;20152;-67
2022/12/05 10:21:31;;;;;;;18.87;15.80;;;1.00;99.90;;;;;;5034901;28;20191;-67
2022/12/05 10:23:59;;;;;;;19.27;16.03;;;1.00;99.90;;;;;;5026531;28;20600;-67
2022/12/05 10:26:42;;;;;;;17.70;15.80;;;0.90;99.90;;;;;;5034687;28;20183;-67
2022/12/05 10:29:27;;;;;;;21.57;16.00;;;0.90;99.90;;;;;;5035106;28;20262;-67
2022/12/05 10:32:03;;;;;;;21.60;18.03;;;0.90;99.90;;;;;;5017080;28;20249;-67
2022/12/05 10:34:31;;;;;;;19.00;17.00;;;1.00;99.90;;;;;;5034595;28;20199;-67
2022/12/05 10:37:15;;;;;;;21.67;17.23;;;1.10;99.90;;;;;;5035159;28;20167;-67
2022/12/05 10:39:41;;;;;;;17.67;15.90;;;1.10;99.90;;;;;;5035003;28;20185;-67
2022/12/05 10:42:13;;;;;;;16.93;15.30;;;1.10;99.90;;;;;;5017034;28;20197;-67
2022/12/05 10:44:39;;;;;;;18.37;15.67;;;1.20;99.90;;;;;;5034993;28;20163;-67
2022/12/05 10:47:05;;;;;;;16.10;14.47;;;1.20;99.90;;;;;;5034581;28;20187;-67
2022/12/05 10:49:32;;;;;;;17.47;15.67;;;1.10;99.90;;;;;;5034469;28;20218;-67
2022/12/05 10:51:59;;;;;;;22.43;16.73;;;1.10;99.90;;;;;;5034228;28;20187;-67
2022/12/05 10:54:29;;;;;;;20.50;17.30;;;1.00;99.90;;;;;;5034389;28;20195;-67
2022/12/05 10:56:55;;;;;;;27.57;21.00;;;1.00;99.90;;;;;;5015813;28;20529;-67
2022/12/05 10:59:24;;;;;;;26.13;21.97;;;1.00;99.90;;;;;;5016777;28;20667;-67
2022/12/05 11:01:55;;;;;;;24.43;19.83;;;1.00;99.90;;;;;;5034281;28;20198;-67
2022/12/05 11:04:30;;;;;;;24.37;20.03;;;1.00;99.90;;;;;;5034479;28;20167;-67
2022/12/05 11:07:04;;;;;;;26.17;20.03;;;0.90;99.90;;;;;;5034391;28;20497;-67
2022/12/05 11:09:36;;;;;;;26.47;20.47;;;0.90;99.90;;;;;;5034342;28;20183;-67
2022/12/05 11:12:08;;;;;;;26.33;21.20;;;0.90;99.90;;;;;;5033907;28;20269;-67
2022/12/05 11:14:35;;;;;;;27.03;22.87;;;0.90;99.90;;;;;;5033858;28;20256;-67
2022/12/05 11:17:03;;;;;;;30.50;23.43;;;0.90;99.90;;;;;;5034199;28;20200;-67
2022/12/05 11:19:36;;;;;;;31.63;24.20;;;0.90;99.90;;;;;;5034150;28;20171;-67
2022/12/05 11:22:02;;;;;;;29.30;22.67;;;0.90;99.90;;;;;;5016009;28;20202;-67
2022/12/05 11:24:31;;;;;;;34.40;27.17;;;0.80;99.90;;;;;;5034335;28;20175;-67
2022/12/05 11:26:59;;;;;;;31.33;24.57;;;0.80;99.90;;;;;;5033689;28;20283;-67
2022/12/05 11:29:34;;;;;;;32.90;23.20;;;0.80;99.90;;;;;;5033934;28;20586;-67
2022/12/05 11:32:02;;;;;;;29.97;22.40;;;0.80;99.90;;;;;;5034009;28;20194;-67
2022/12/05 11:34:46;;;;;;;32.63;22.97;;;0.80;99.90;;;;;;5015857;28;20289;-67
2022/12/05 11:37:19;;;;;;;32.03;23.20;;;0.80;99.90;;;;;;5033826;28;20209;-67
2022/12/05 11:39:45;;;;;;;33.10;24.60;;;0.70;99.90;;;;;;5033886;28;20228;-67
2022/12/05 11:42:30;;;;;;;31.53;25.13;;;0.70;99.90;;;;;;5033776;28;20199;-67
2022/12/05 11:45:15;;;;;;;33.87;24.53;;;0.70;99.90;;;;;;5033515;28;20159;-67
2022/12/05 11:47:47;;;;;;;33.17;24.53;;;0.70;99.90;;;;;;5033752;28;20304;-67
2022/12/05 11:50:18;;;;;;;31.20;26.83;;;0.70;99.90;;;;;;5015739;28;20171;-67
2022/12/05 11:52:46;;;;;;;29.60;23.97;;;0.70;99.90;;;;;;5033297;28;20266;-67
2022/12/05 11:55:20;;;;;;;32.93;23.80;;;0.80;99.90;;;;;;5033324;28;20203;-67
2022/12/05 11:58:04;;;;;;;31.77;24.93;;;0.80;99.90;;;;;;5033664;28;20529;-67
2022/12/05 12:00:41;;;;;;;31.70;24.60;;;0.70;99.90;;;;;;5033593;28;20246;-67
2022/12/05 12:03:19;;;;;;;32.27;24.30;;;0.70;99.90;;;;;;5033332;28;20741;-67
2022/12/05 12:06:05;;;;;;;29.27;24.10;;;0.70;99.90;;;;;;5033226;28;20614;-67
2022/12/05 12:08:43;;;;;;;32.30;23.00;;;0.70;99.90;;;;;;5032669;28;20210;-67
2022/12/05 12:11:27;;;;;;;31.27;24.27;;;0.70;99.90;;;;;;5015758;28;20667;-67
2022/12/05 12:13:56;;;;;;;28.73;22.80;;;0.70;99.90;;;;;;5015588;28;20242;-67
2022/12/05 12:16:27;;;;;;;31.63;23.93;;;0.70;99.90;;;;;;5033876;28;20225;-67
2022/12/05 12:18:56;;;;;;;33.60;24.90;;;0.70;99.90;;;;;;5033515;28;20171;-67
2022/12/05 12:21:25;;;;;;;33.00;24.93;;;0.70;99.90;;;;;;5033451;28;20203;-67
2022/12/05 12:24:23;;;;;;;36.50;28.13;;;0.70;99.90;;;;;;5033412;28;20210;-66
2022/12/05 12:26:52;;;;;;;33.30;26.80;;;0.70;99.90;;;;;;5017205;28;20620;-67
2022/12/05 12:29:40;;;;;;;36.07;27.00;;;0.70;99.90;;;;;;5033112;28;20168;-66
2022/12/05 12:32:36;;;;;;;31.93;23.87;;;0.80;99.90;;;;;;5033213;28;20275;-67
2022/12/05 12:35:23;;;;;;;29.53;22.57;;;0.80;99.90;;;;;;5032973;28;20187;-67
2022/12/05 12:38:27;;;;;;;26.07;21.73;;;0.80;99.90;;;;;;5032952;28;20242;-67
2022/12/05 12:41:18;;;;;;;28.63;23.17;;;0.80;99.90;;;;;;5012165;28;20700;-67
2022/12/05 12:44:07;;;;;;;32.07;24.20;;;0.70;99.90;;;;;;5013646;28;20165;-67
2022/12/05 12:46:42;;;;;;;35.40;23.20;;;0.60;99.90;;;;;;5013393;28;20164;-67
2022/12/05 12:49:33;;;;;;;33.53;24.67;;;0.60;99.90;;;;;;5012179;28;20195;-67
2022/12/05 12:52:11;;;;;;;36.80;26.17;;;0.60;99.90;;;;;;5011345;28;20665;-67
2022/12/05 12:54:48;;;;;;;33.40;24.37;;;0.70;99.90;;;;;;5013150;28;20187;-67
2022/12/05 12:57:23;;;;;;;34.40;24.80;;;0.70;99.90;;;;;;5013112;28;20176;-67
2022/12/05 13:00:28;;;;;;;34.87;24.73;;;0.70;99.90;;;;;;5013254;28;20222;-67
2022/12/05 13:03:12;;;;;;;31.37;22.03;;;0.70;99.90;;;;;;5006553;28;20196;-67
2022/12/05 13:05:43;;;;;;;29.83;23.00;;;0.60;99.90;;;;;;5011955;28;20258;-67
2022/12/05 13:08:37;;;;;;;34.30;23.07;;;0.60;99.90;;;;;;5013257;28;20175;-67